Time,TemperatureF,DewpointF,PressureIn,WindDirection,WindDirectionDegrees,WindSpeedMPH,WindSpeedGustMPH,Humidity,HourlyPrecipIn,Conditions,Clouds,dailyrainin,SoftwareType,DateUTC
2013-05-31 00:01:00,70.4,64.6,30.05,WNW,286,0.0,1.0,82,0.00,,,0.00,Wunderground v.1.15,2013-05-31 04:01:00,
2013-05-31 00:02:00,70.5,64.7,30.05,WNW,286,0.0,1.0,82,0.00,,,0.00,Wunderground v.1.15,2013-05-31 04:02:00,
2013-05-31 00:06:00,70.5,64.7,30.06,WNW,286,1.0,1.0,82,0.00,,,0.00,Wunderground v.1.15,2013-05-31 04:06:00,
2013-05-31 00:11:00,70.5,64.7,30.06,WNW,286,0.0,0.0,82,0.00,,,0.00,Wunderground v.1.15,2013-05-31 04:11:00,
2013-05-31 00:16:00,70.4,64.6,30.06,WNW,286,0.0,0.0,82,0.00,,,0.00,Wunderground v.1.15,2013-05-31 04:16:00,
2013-05-31 00:21:00,70.1,64.3,30.06,WNW,286,0.0,0.0,82,0.00,,,0.00,Wunderground v.1.15,2013-05-31 04:21:00,
2013-05-31 00:26:00,69.7,64.3,30.06,WNW,283,0.0,1.0,83,0.00,,,0.00,Wunderground v.1.15,2013-05-31 04:26:00,
2013-05-31 00:28:00,69.5,64.1,30.06,WNW,283,0.0,1.0,83,0.00,,,0.00,Wunderground v.1.15,2013-05-31 04:28:00,
2013-05-31 00:33:00,69.2,64.2,30.06,WNW,283,0.0,0.0,84,0.00,,,0.00,Wunderground v.1.15,2013-05-31 04:33:00,
2013-05-31 00:38:00,68.9,64.2,30.06,WNW,283,0.0,0.0,85,0.00,,,0.00,Wunderground v.1.15,2013-05-31 04:38:00,
2013-05-31 00:41:00,68.7,64.0,30.06,WNW,283,0.0,0.0,85,0.00,,,0.00,Wunderground v.1.15,2013-05-31 04:41:00,
2013-05-31 00:46:00,68.4,63.7,30.06,WNW,283,0.0,0.0,85,0.00,,,0.00,Wunderground v.1.15,2013-05-31 04:46:00,
2013-05-31 00:51:00,68.1,63.8,30.06,WNW,283,0.0,0.0,86,0.00,,,0.00,Wunderground v.1.15,2013-05-31 04:51:00,
2013-05-31 00:56:00,67.9,63.6,30.06,WNW,283,0.0,0.0,86,0.00,,,0.00,Wunderground v.1.15,2013-05-31 04:56:00,
2013-05-31 01:02:00,67.7,63.7,30.06,WNW,283,0.0,0.0,87,0.00,,,0.00,Wunderground v.1.15,2013-05-31 05:02:00,
2013-05-31 01:08:00,67.4,63.4,30.06,WNW,283,0.0,0.0,87,0.00,,,0.00,Wunderground v.1.15,2013-05-31 05:08:00,
2013-05-31 01:13:00,67.2,63.2,30.06,WNW,283,0.0,0.0,87,0.00,,,0.00,Wunderground v.1.15,2013-05-31 05:13:00,
2013-05-31 01:19:00,67.1,63.4,30.06,WNW,283,0.0,0.0,88,0.00,,,0.00,Wunderground v.1.15,2013-05-31 05:19:00,
2013-05-31 01:24:00,67.0,63.3,30.06,WNW,283,0.0,0.0,88,0.00,,,0.00,Wunderground v.1.15,2013-05-31 05:24:00,
2013-05-31 01:30:00,66.8,63.1,30.06,WNW,283,0.0,0.0,88,0.00,,,0.00,Wunderground v.1.15,2013-05-31 05:30:00,
2013-05-31 01:35:00,66.7,63.4,30.06,WNW,283,0.0,0.0,89,0.00,,,0.00,Wunderground v.1.15,2013-05-31 05:35:00,
2013-05-31 01:41:00,66.6,63.3,30.06,WNW,283,0.0,0.0,89,0.00,,,0.00,Wunderground v.1.15,2013-05-31 05:41:00,
2013-05-31 01:46:00,66.6,63.3,30.06,WNW,283,0.0,0.0,89,0.00,,,0.00,Wunderground v.1.15,2013-05-31 05:46:00,
2013-05-31 01:52:00,66.5,63.2,30.06,WNW,283,0.0,0.0,89,0.00,,,0.00,Wunderground v.1.15,2013-05-31 05:52:00,
2013-05-31 01:57:00,66.5,63.2,30.06,WNW,283,0.0,0.0,89,0.00,,,0.00,Wunderground v.1.15,2013-05-31 05:57:00,
2013-05-31 02:03:00,66.3,63.0,30.07,WNW,283,0.0,0.0,89,0.00,,,0.00,Wunderground v.1.15,2013-05-31 06:03:00,
2013-05-31 02:08:00,66.2,63.2,30.07,WNW,283,0.0,0.0,90,0.00,,,0.00,Wunderground v.1.15,2013-05-31 06:08:00,
2013-05-31 02:14:00,66.0,62.7,30.07,WNW,283,0.0,0.0,89,0.00,,,0.00,Wunderground v.1.15,2013-05-31 06:14:00,
2013-05-31 02:19:00,65.8,62.8,30.07,WNW,283,0.0,0.0,90,0.00,,,0.00,Wunderground v.1.15,2013-05-31 06:19:00,
2013-05-31 02:25:00,65.7,62.7,30.07,WNW,283,0.0,0.0,90,0.00,,,0.00,Wunderground v.1.15,2013-05-31 06:25:00,
2013-05-31 02:30:00,65.6,62.6,30.07,WNW,283,0.0,0.0,90,0.00,,,0.00,Wunderground v.1.15,2013-05-31 06:30:00,
2013-05-31 02:36:00,65.5,62.5,30.07,WNW,283,0.0,0.0,90,0.00,,,0.00,Wunderground v.1.15,2013-05-31 06:36:00,
2013-05-31 02:41:00,65.3,62.3,30.07,WNW,283,0.0,0.0,90,0.00,,,0.00,Wunderground v.1.15,2013-05-31 06:41:00,
2013-05-31 02:47:00,65.1,62.1,30.06,WNW,283,0.0,0.0,90,0.00,,,0.00,Wunderground v.1.15,2013-05-31 06:47:00,
2013-05-31 02:52:00,64.9,62.2,30.06,WNW,283,0.0,0.0,91,0.00,,,0.00,Wunderground v.1.15,2013-05-31 06:52:00,
2013-05-31 02:58:00,64.8,62.1,30.06,WNW,283,0.0,0.0,91,0.00,,,0.00,Wunderground v.1.15,2013-05-31 06:58:00,
2013-05-31 03:03:00,64.7,62.0,30.06,WNW,283,0.0,0.0,91,0.00,,,0.00,Wunderground v.1.15,2013-05-31 07:03:00,
2013-05-31 03:08:00,64.5,61.8,30.06,WNW,283,0.0,0.0,91,0.00,,,0.00,Wunderground v.1.15,2013-05-31 07:08:00,
2013-05-31 03:13:00,64.5,61.8,30.06,WNW,283,0.0,0.0,91,0.00,,,0.00,Wunderground v.1.15,2013-05-31 07:13:00,
2013-05-31 03:18:00,64.5,61.8,30.06,WNW,283,0.0,0.0,91,0.00,,,0.00,Wunderground v.1.15,2013-05-31 07:18:00,
2013-05-31 03:23:00,64.5,62.1,30.07,WNW,283,0.0,0.0,92,0.00,,,0.00,Wunderground v.1.15,2013-05-31 07:23:00,
2013-05-31 03:28:00,64.4,62.0,30.07,WNW,283,0.0,0.0,92,0.00,,,0.00,Wunderground v.1.15,2013-05-31 07:28:00,
2013-05-31 03:33:00,64.4,62.0,30.06,WNW,283,0.0,0.0,92,0.00,,,0.00,Wunderground v.1.15,2013-05-31 07:33:00,
2013-05-31 03:38:00,64.3,61.9,30.07,WNW,283,0.0,0.0,92,0.00,,,0.00,Wunderground v.1.15,2013-05-31 07:38:00,
2013-05-31 03:43:00,64.1,61.7,30.06,WNW,283,0.0,0.0,92,0.00,,,0.00,Wunderground v.1.15,2013-05-31 07:43:00,
2013-05-31 03:48:00,63.9,61.5,30.06,WNW,283,0.0,0.0,92,0.00,,,0.00,Wunderground v.1.15,2013-05-31 07:48:00,
2013-05-31 03:53:00,63.7,61.3,30.06,WNW,283,0.0,0.0,92,0.00,,,0.00,Wunderground v.1.15,2013-05-31 07:53:00,
2013-05-31 03:58:00,63.5,61.1,30.07,WNW,283,0.0,0.0,92,0.00,,,0.00,Wunderground v.1.15,2013-05-31 07:58:00,
2013-05-31 04:03:00,63.3,60.9,30.06,WNW,283,0.0,0.0,92,0.00,,,0.00,Wunderground v.1.15,2013-05-31 08:03:00,
2013-05-31 04:08:00,63.2,60.8,30.07,WNW,283,0.0,0.0,92,0.00,,,0.00,Wunderground v.1.15,2013-05-31 08:08:00,
2013-05-31 04:13:00,63.1,60.7,30.07,WNW,283,0.0,0.0,92,0.00,,,0.00,Wunderground v.1.15,2013-05-31 08:13:00,
2013-05-31 04:18:00,63.1,60.7,30.07,WNW,283,0.0,0.0,92,0.00,,,0.00,Wunderground v.1.15,2013-05-31 08:18:00,
2013-05-31 04:23:00,63.1,60.7,30.07,WNW,283,0.0,0.0,92,0.00,,,0.00,Wunderground v.1.15,2013-05-31 08:23:00,
2013-05-31 04:28:00,63.0,60.6,30.07,WNW,283,0.0,0.0,92,0.00,,,0.00,Wunderground v.1.15,2013-05-31 08:28:00,
2013-05-31 04:33:00,62.9,60.5,30.07,WNW,283,0.0,0.0,92,0.00,,,0.00,Wunderground v.1.15,2013-05-31 08:33:00,
2013-05-31 04:38:00,62.9,60.8,30.07,WNW,283,0.0,0.0,93,0.00,,,0.00,Wunderground v.1.15,2013-05-31 08:38:00,
2013-05-31 04:43:00,63.0,60.9,30.08,WNW,283,0.0,0.0,93,0.00,,,0.00,Wunderground v.1.15,2013-05-31 08:43:00,
2013-05-31 04:48:00,63.0,60.9,30.08,WNW,283,0.0,0.0,93,0.00,,,0.00,Wunderground v.1.15,2013-05-31 08:48:00,
2013-05-31 04:53:00,63.1,61.0,30.08,WNW,283,0.0,0.0,93,0.00,,,0.00,Wunderground v.1.15,2013-05-31 08:53:00,
2013-05-31 04:58:00,63.2,61.1,30.08,WNW,283,0.0,0.0,93,0.00,,,0.00,Wunderground v.1.15,2013-05-31 08:58:00,
2013-05-31 05:03:00,63.1,61.0,30.08,WNW,283,0.0,0.0,93,0.00,,,0.00,Wunderground v.1.15,2013-05-31 09:03:00,
2013-05-31 05:08:00,63.0,60.9,30.07,WNW,283,0.0,0.0,93,0.00,,,0.00,Wunderground v.1.15,2013-05-31 09:08:00,
2013-05-31 05:13:00,62.9,60.8,30.08,WNW,283,0.0,0.0,93,0.00,,,0.00,Wunderground v.1.15,2013-05-31 09:13:00,
2013-05-31 05:18:00,62.7,60.6,30.08,WNW,283,0.0,0.0,93,0.00,,,0.00,Wunderground v.1.15,2013-05-31 09:18:00,
2013-05-31 05:24:00,62.6,60.5,30.08,WNW,283,0.0,0.0,93,0.00,,,0.00,Wunderground v.1.15,2013-05-31 09:24:00,
2013-05-31 05:29:00,62.5,60.4,30.08,WNW,283,0.0,0.0,93,0.00,,,0.00,Wunderground v.1.15,2013-05-31 09:29:00,
2013-05-31 05:33:00,62.5,60.4,30.08,WNW,283,0.0,0.0,93,0.00,,,0.00,Wunderground v.1.15,2013-05-31 09:33:00,
2013-05-31 05:39:00,62.7,60.6,30.08,WNW,283,0.0,0.0,93,0.00,,,0.00,Wunderground v.1.15,2013-05-31 09:39:00,
2013-05-31 05:44:00,62.8,60.7,30.08,WNW,283,0.0,0.0,93,0.00,,,0.00,Wunderground v.1.15,2013-05-31 09:44:00,
2013-05-31 05:49:00,62.9,60.8,30.09,WNW,283,0.0,0.0,93,0.00,,,0.00,Wunderground v.1.15,2013-05-31 09:49:00,
2013-05-31 05:54:00,62.9,60.8,30.09,WNW,283,0.0,0.0,93,0.00,,,0.00,Wunderground v.1.15,2013-05-31 09:54:00,
2013-05-31 05:59:00,62.9,60.8,30.09,WNW,283,0.0,0.0,93,0.00,,,0.00,Wunderground v.1.15,2013-05-31 09:59:00,
2013-05-31 06:04:00,63.2,61.1,30.09,WNW,283,0.0,0.0,93,0.00,,,0.00,Wunderground v.1.15,2013-05-31 10:04:00,
2013-05-31 06:09:00,63.3,61.5,30.09,WNW,283,0.0,0.0,94,0.00,,,0.00,Wunderground v.1.15,2013-05-31 10:09:00,
2013-05-31 06:14:00,63.8,62.0,30.09,WNW,283,0.0,0.0,94,0.00,,,0.00,Wunderground v.1.15,2013-05-31 10:14:00,
2013-05-31 06:19:00,64.3,62.5,30.09,WNW,283,0.0,0.0,94,0.00,,,0.00,Wunderground v.1.15,2013-05-31 10:19:00,
2013-05-31 06:24:00,64.7,62.9,30.09,WNW,283,0.0,0.0,94,0.00,,,0.00,Wunderground v.1.15,2013-05-31 10:24:00,
2013-05-31 06:29:00,65.3,63.5,30.09,WNW,283,0.0,0.0,94,0.00,,,0.00,Wunderground v.1.15,2013-05-31 10:29:00,
2013-05-31 06:34:00,65.8,64.0,30.09,WNW,283,0.0,0.0,94,0.00,,,0.00,Wunderground v.1.15,2013-05-31 10:34:00,
2013-05-31 06:39:00,66.3,64.5,30.09,WNW,283,0.0,0.0,94,0.00,,,0.00,Wunderground v.1.15,2013-05-31 10:39:00,
2013-05-31 06:44:00,67.0,65.2,30.10,WNW,283,0.0,0.0,94,0.00,,,0.00,Wunderground v.1.15,2013-05-31 10:44:00,
2013-05-31 06:49:00,67.6,65.8,30.09,WNW,283,0.0,0.0,94,0.00,,,0.00,Wunderground v.1.15,2013-05-31 10:49:00,
2013-05-31 06:54:00,68.2,66.1,30.09,WNW,283,0.0,0.0,93,0.00,,,0.00,Wunderground v.1.15,2013-05-31 10:54:00,
2013-05-31 06:59:00,68.9,66.8,30.10,WNW,283,0.0,0.0,93,0.00,,,0.00,Wunderground v.1.15,2013-05-31 10:59:00,
2013-05-31 07:04:00,69.5,66.8,30.10,WNW,283,0.0,0.0,91,0.00,,,0.00,Wunderground v.1.15,2013-05-31 11:04:00,
2013-05-31 07:09:00,70.2,67.1,30.10,SSW,213,0.0,0.0,90,0.00,,,0.00,Wunderground v.1.15,2013-05-31 11:09:00,
2013-05-31 07:14:00,71.0,66.9,30.10,SSW,213,0.0,0.0,87,0.00,,,0.00,Wunderground v.1.15,2013-05-31 11:14:00,
2013-05-31 07:19:00,71.8,67.4,30.10,SSW,213,0.0,0.0,86,0.00,,,0.00,Wunderground v.1.15,2013-05-31 11:19:00,
2013-05-31 07:24:00,72.7,67.2,30.10,SSW,213,0.0,0.0,83,0.00,,,0.00,Wunderground v.1.15,2013-05-31 11:24:00,
2013-05-31 07:29:00,73.5,67.3,30.10,SSW,213,0.0,1.0,81,0.00,,,0.00,Wunderground v.1.15,2013-05-31 11:29:00,
2013-05-31 07:34:00,74.2,67.3,30.10,SSW,213,0.0,0.0,79,0.00,,,0.00,Wunderground v.1.15,2013-05-31 11:34:00,
2013-05-31 07:39:00,74.9,67.2,30.10,SSW,213,0.0,1.0,77,0.00,,,0.00,Wunderground v.1.15,2013-05-31 11:39:00,
2013-05-31 07:44:00,75.5,67.4,30.10,SSW,213,0.0,1.0,76,0.00,,,0.00,Wunderground v.1.15,2013-05-31 11:44:00,
2013-05-31 07:49:00,75.6,66.7,30.10,SSW,213,0.0,1.0,74,0.00,,,0.00,Wunderground v.1.15,2013-05-31 11:49:00,
2013-05-31 07:54:00,75.7,66.8,30.09,SSW,213,0.0,0.0,74,0.00,,,0.00,Wunderground v.1.15,2013-05-31 11:54:00,
2013-05-31 07:59:00,76.1,67.2,30.10,SSW,213,0.0,0.0,74,0.00,,,0.00,Wunderground v.1.15,2013-05-31 11:59:00,
2013-05-31 08:04:00,76.4,67.1,30.10,SSW,213,0.0,0.0,73,0.00,,,0.00,Wunderground v.1.15,2013-05-31 12:04:00,
2013-05-31 08:09:00,76.7,67.0,30.10,SSW,213,0.0,0.0,72,0.00,,,0.00,Wunderground v.1.15,2013-05-31 12:09:00,
2013-05-31 08:14:00,77.1,67.0,30.09,SW,215,0.0,4.0,71,0.00,,,0.00,Wunderground v.1.15,2013-05-31 12:14:00,
2013-05-31 08:19:00,77.6,67.9,30.10,SW,216,0.0,4.0,72,0.00,,,0.00,Wunderground v.1.15,2013-05-31 12:19:00,
2013-05-31 08:24:00,78.7,67.7,30.09,SW,216,3.0,3.0,69,0.00,,,0.00,Wunderground v.1.15,2013-05-31 12:24:00,
2013-05-31 08:29:00,78.9,67.9,30.09,SW,215,0.0,3.0,69,0.00,,,0.00,Wunderground v.1.15,2013-05-31 12:29:00,
2013-05-31 08:34:00,79.4,68.3,30.09,SW,216,0.0,1.0,69,0.00,,,0.00,Wunderground v.1.15,2013-05-31 12:34:00,
2013-05-31 08:39:00,79.9,68.4,30.09,SW,215,0.0,1.0,68,0.00,,,0.00,Wunderground v.1.15,2013-05-31 12:39:00,
2013-05-31 08:44:00,80.7,68.7,30.09,WNW,283,0.0,2.0,67,0.00,,,0.00,Wunderground v.1.15,2013-05-31 12:44:00,
2013-05-31 08:50:00,81.0,68.6,30.09,WNW,284,0.0,0.0,66,0.00,,,0.00,Wunderground v.1.15,2013-05-31 12:50:00,
2013-05-31 08:55:00,81.2,68.8,30.09,WNW,284,0.0,2.0,66,0.00,,,0.00,Wunderground v.1.15,2013-05-31 12:55:00,
2013-05-31 09:00:00,81.2,69.2,30.09,SW,228,3.0,3.0,67,0.00,,,0.00,Wunderground v.1.15,2013-05-31 13:00:00,
2013-05-31 09:05:00,81.2,68.8,30.09,SW,223,2.0,4.0,66,0.00,,,0.00,Wunderground v.1.15,2013-05-31 13:05:00,
2013-05-31 09:10:00,81.2,69.2,30.09,SW,222,0.0,1.0,67,0.00,,,0.00,Wunderground v.1.15,2013-05-31 13:10:00,
2013-05-31 09:15:00,81.6,69.6,30.09,SW,222,0.0,4.0,67,0.00,,,0.00,Wunderground v.1.15,2013-05-31 13:15:00,
2013-05-31 09:20:00,82.2,69.7,30.08,SW,222,0.0,0.0,66,0.00,,,0.00,Wunderground v.1.15,2013-05-31 13:20:00,
2013-05-31 09:25:00,82.8,69.8,30.08,SW,222,3.0,3.0,65,0.00,,,0.00,Wunderground v.1.15,2013-05-31 13:25:00,
2013-05-31 09:30:00,83.1,70.1,30.08,SW,221,0.0,0.0,65,0.00,,,0.00,Wunderground v.1.15,2013-05-31 13:30:00,
2013-05-31 09:35:00,83.5,70.5,30.08,SW,220,0.0,2.0,65,0.00,,,0.00,Wunderground v.1.15,2013-05-31 13:35:00,
2013-05-31 09:40:00,83.9,70.9,30.08,NW,316,1.0,1.0,65,0.00,,,0.00,Wunderground v.1.15,2013-05-31 13:40:00,
2013-05-31 09:45:00,84.4,70.4,30.08,WSW,248,0.0,3.0,63,0.00,,,0.00,Wunderground v.1.15,2013-05-31 13:45:00,
2013-05-31 09:50:00,84.9,70.4,30.08,West,281,2.0,3.0,62,0.00,,,0.00,Wunderground v.1.15,2013-05-31 13:50:00,
2013-05-31 09:55:00,85.8,71.3,30.08,SSE,167,1.0,4.0,62,0.00,,,0.00,Wunderground v.1.15,2013-05-31 13:55:00,
2013-05-31 10:00:00,86.1,71.6,30.07,NW,317,0.0,1.0,62,0.00,,,0.00,Wunderground v.1.15,2013-05-31 14:00:00,
2013-05-31 10:05:00,85.9,70.9,30.07,WSW,238,1.0,5.0,61,0.00,,,0.00,Wunderground v.1.15,2013-05-31 14:05:00,
2013-05-31 10:10:00,85.8,70.8,30.07,SW,225,5.0,5.0,61,0.00,,,0.00,Wunderground v.1.15,2013-05-31 14:10:00,
2013-05-31 10:15:00,85.8,71.3,30.07,West,277,0.0,5.0,62,0.00,,,0.00,Wunderground v.1.15,2013-05-31 14:15:00,
2013-05-31 10:20:00,86.5,71.5,30.07,West,277,0.0,1.0,61,0.00,,,0.00,Wunderground v.1.15,2013-05-31 14:20:00,
2013-05-31 10:25:00,87.1,71.5,30.07,SSW,210,0.0,3.0,60,0.00,,,0.00,Wunderground v.1.15,2013-05-31 14:25:00,
2013-05-31 10:30:00,87.5,71.4,30.07,West,271,5.0,5.0,59,0.00,,,0.00,Wunderground v.1.15,2013-05-31 14:30:00,
2013-05-31 10:35:00,87.9,72.3,30.06,WSW,251,0.0,5.0,60,0.00,,,0.00,Wunderground v.1.15,2013-05-31 14:35:00,
2013-05-31 10:40:00,88.3,70.6,30.06,WSW,244,4.0,6.0,56,0.00,,,0.00,Wunderground v.1.15,2013-05-31 14:40:00,
2013-05-31 10:45:00,88.2,69.5,30.06,WNW,293,6.0,12.0,54,0.00,,,0.00,Wunderground v.1.15,2013-05-31 14:45:00,
2013-05-31 10:50:00,88.5,66.3,30.06,WSW,256,2.0,10.0,48,0.00,,,0.00,Wunderground v.1.15,2013-05-31 14:50:00,
2013-05-31 10:55:00,88.9,67.3,30.06,West,278,1.0,10.0,49,0.00,,,0.00,Wunderground v.1.15,2013-05-31 14:55:00,
2013-05-31 11:00:00,89.3,67.6,30.06,WNW,298,0.0,3.0,49,0.00,,,0.00,Wunderground v.1.15,2013-05-31 15:00:00,
2013-05-31 11:05:00,89.9,67.6,30.06,NNW,329,3.0,6.0,48,0.00,,,0.00,Wunderground v.1.15,2013-05-31 15:05:00,
2013-05-31 11:10:00,90.3,66.7,30.06,SSW,198,7.0,7.0,46,0.00,,,0.00,Wunderground v.1.15,2013-05-31 15:10:00,
2013-05-31 11:15:00,90.2,67.2,30.05,SW,223,3.0,7.0,47,0.00,,,0.00,Wunderground v.1.15,2013-05-31 15:15:00,
2013-05-31 11:20:00,90.5,66.3,30.05,NNW,331,11.0,11.0,45,0.00,,,0.00,Wunderground v.1.15,2013-05-31 15:20:00,
2013-05-31 11:25:00,90.5,66.9,30.05,WNW,296,3.0,12.0,46,0.00,,,0.00,Wunderground v.1.15,2013-05-31 15:25:00,
2013-05-31 11:30:00,90.7,65.8,30.05,NW,317,4.0,9.0,44,0.00,,,0.00,Wunderground v.1.15,2013-05-31 15:30:00,
2013-05-31 11:35:00,90.6,66.3,30.05,NW,319,9.0,10.0,45,0.00,,,0.00,Wunderground v.1.15,2013-05-31 15:35:00,
2013-05-31 11:40:00,90.5,66.3,30.05,WNW,293,4.0,5.0,45,0.00,,,0.00,Wunderground v.1.15,2013-05-31 15:40:00,
2013-05-31 11:45:00,90.8,65.9,30.05,NW,309,3.0,11.0,44,0.00,,,0.00,Wunderground v.1.15,2013-05-31 15:45:00,
2013-05-31 11:50:00,91.1,66.2,30.05,WSW,253,3.0,5.0,44,0.00,,,0.00,Wunderground v.1.15,2013-05-31 15:50:00,
2013-05-31 11:55:00,91.1,66.8,30.04,West,260,0.0,14.0,45,0.00,,,0.00,Wunderground v.1.15,2013-05-31 15:55:00,
2013-05-31 12:00:00,91.3,67.0,30.04,NW,314,2.0,5.0,45,0.00,,,0.00,Wunderground v.1.15,2013-05-31 16:00:00,
2013-05-31 12:05:00,91.4,67.7,30.04,NW,315,4.0,12.0,46,0.00,,,0.00,Wunderground v.1.15,2013-05-31 16:05:00,
2013-05-31 12:10:00,91.6,68.5,30.04,WNW,299,0.0,4.0,47,0.00,,,0.00,Wunderground v.1.15,2013-05-31 16:10:00,
2013-05-31 12:15:00,91.5,66.5,30.04,WNW,302,3.0,12.0,44,0.00,,,0.00,Wunderground v.1.15,2013-05-31 16:15:00,
2013-05-31 12:20:00,91.4,66.4,30.03,NNW,329,5.0,7.0,44,0.00,,,0.00,Wunderground v.1.15,2013-05-31 16:20:00,
2013-05-31 12:25:00,91.6,66.6,30.03,SW,223,3.0,7.0,44,0.00,,,0.00,Wunderground v.1.15,2013-05-31 16:25:00,
2013-05-31 12:30:00,91.3,66.3,30.03,WNW,290,3.0,4.0,44,0.00,,,0.00,Wunderground v.1.15,2013-05-31 16:30:00,
2013-05-31 12:35:00,91.4,67.1,30.03,SW,228,6.0,13.0,45,0.00,,,0.00,Wunderground v.1.15,2013-05-31 16:35:00,
2013-05-31 12:40:00,91.7,66.0,30.03,WSW,241,0.0,5.0,43,0.00,,,0.00,Wunderground v.1.15,2013-05-31 16:40:00,
2013-05-31 12:45:00,91.8,66.1,30.03,NNW,338,6.0,9.0,43,0.00,,,0.00,Wunderground v.1.15,2013-05-31 16:45:00,
2013-05-31 12:50:00,91.3,67.0,30.03,WNW,302,3.0,4.0,45,0.00,,,0.00,Wunderground v.1.15,2013-05-31 16:50:00,
2013-05-31 12:55:00,91.5,67.2,30.03,SW,236,6.0,9.0,45,0.00,,,0.00,Wunderground v.1.15,2013-05-31 16:55:00,
2013-05-31 13:00:00,91.4,66.4,30.02,WSW,252,3.0,4.0,44,0.00,,,0.00,Wunderground v.1.15,2013-05-31 17:00:00,
2013-05-31 13:05:00,91.8,68.7,30.02,WNW,290,1.0,6.0,47,0.00,,,0.00,Wunderground v.1.15,2013-05-31 17:05:00,
2013-05-31 13:10:00,92.3,65.9,30.02,NW,325,1.0,3.0,42,0.00,,,0.00,Wunderground v.1.15,2013-05-31 17:10:00,
2013-05-31 13:15:00,92.5,67.4,30.02,SW,228,1.0,9.0,44,0.00,,,0.00,Wunderground v.1.15,2013-05-31 17:15:00,
2013-05-31 13:20:00,92.9,65.7,30.02,WSW,257,1.0,6.0,41,0.00,,,0.00,Wunderground v.1.15,2013-05-31 17:20:00,
2013-05-31 13:25:00,93.0,65.8,30.01,WNW,300,4.0,13.0,41,0.00,,,0.00,Wunderground v.1.15,2013-05-31 17:25:00,
2013-05-31 13:30:00,93.1,66.6,30.01,SW,232,3.0,10.0,42,0.00,,,0.00,Wunderground v.1.15,2013-05-31 17:30:00,
2013-05-31 13:36:00,93.2,66.7,30.01,West,277,5.0,10.0,42,0.00,,,0.00,Wunderground v.1.15,2013-05-31 17:36:00,
2013-05-31 13:41:00,93.4,68.9,30.01,West,272,9.0,9.0,45,0.00,,,0.00,Wunderground v.1.15,2013-05-31 17:41:00,
2013-05-31 13:46:00,93.7,67.1,30.01,SW,228,6.0,11.0,42,0.00,,,0.00,Wunderground v.1.15,2013-05-31 17:46:00,
2013-05-31 13:51:00,93.6,66.4,30.01,WNW,296,2.0,8.0,41,0.00,,,0.00,Wunderground v.1.15,2013-05-31 17:51:00,
2013-05-31 13:56:00,93.4,65.5,30.00,WNW,288,1.0,13.0,40,0.00,,,0.00,Wunderground v.1.15,2013-05-31 17:56:00,
2013-05-31 14:01:00,93.4,66.9,30.00,West,279,2.0,11.0,42,0.00,,,0.00,Wunderground v.1.15,2013-05-31 18:01:00,
2013-05-31 14:06:00,93.4,65.5,30.00,West,265,5.0,15.0,40,0.00,,,0.00,Wunderground v.1.15,2013-05-31 18:06:00,
2013-05-31 14:11:00,93.4,66.2,30.00,SSW,211,6.0,7.0,41,0.00,,,0.00,Wunderground v.1.15,2013-05-31 18:11:00,
2013-05-31 14:16:00,93.2,66.7,30.00,West,269,5.0,7.0,42,0.00,,,0.00,Wunderground v.1.15,2013-05-31 18:16:00,
2013-05-31 14:21:00,92.8,65.6,30.00,West,275,0.0,11.0,41,0.00,,,0.00,Wunderground v.1.15,2013-05-31 18:21:00,
2013-05-31 14:26:00,93.2,67.4,29.99,SW,226,4.0,11.0,43,0.00,,,0.00,Wunderground v.1.15,2013-05-31 18:26:00,
2013-05-31 14:31:00,93.3,65.4,29.99,SW,222,7.0,11.0,40,0.00,,,0.00,Wunderground v.1.15,2013-05-31 18:31:00,
2013-05-31 14:36:00,93.5,64.8,29.99,SSW,200,4.0,14.0,39,0.00,,,0.00,Wunderground v.1.15,2013-05-31 18:36:00,
2013-05-31 14:41:00,93.7,65.0,29.99,SW,217,10.0,14.0,39,0.00,,,0.00,Wunderground v.1.15,2013-05-31 18:41:00,
2013-05-31 14:46:00,93.3,64.7,29.99,SW,226,11.0,14.0,39,0.00,,,0.00,Wunderground v.1.15,2013-05-31 18:46:00,
2013-05-31 14:51:00,92.9,65.0,29.99,West,265,2.0,7.0,40,0.00,,,0.00,Wunderground v.1.15,2013-05-31 18:51:00,
2013-05-31 14:56:00,92.5,66.1,29.99,West,265,3.0,15.0,42,0.00,,,0.00,Wunderground v.1.15,2013-05-31 18:56:00,
2013-05-31 15:01:00,92.0,65.6,29.99,WSW,254,1.0,5.0,42,0.00,,,0.00,Wunderground v.1.15,2013-05-31 19:01:00,
2013-05-31 15:06:00,91.9,66.9,29.99,SSW,211,6.0,6.0,44,0.00,,,0.00,Wunderground v.1.15,2013-05-31 19:06:00,
2013-05-31 15:11:00,92.1,66.4,29.99,SW,229,6.0,6.0,43,0.00,,,0.00,Wunderground v.1.15,2013-05-31 19:11:00,
2013-05-31 15:16:00,91.9,66.2,29.98,NW,313,0.0,6.0,43,0.00,,,0.00,Wunderground v.1.15,2013-05-31 19:16:00,
2013-05-31 15:21:00,91.7,66.0,29.98,WSW,254,0.0,5.0,43,0.00,,,0.00,Wunderground v.1.15,2013-05-31 19:21:00,
2013-05-31 15:26:00,91.5,66.5,29.98,SW,217,10.0,10.0,44,0.00,,,0.00,Wunderground v.1.15,2013-05-31 19:26:00,
2013-05-31 15:31:00,91.8,66.1,29.98,SW,219,4.0,14.0,43,0.00,,,0.00,Wunderground v.1.15,2013-05-31 19:31:00,
2013-05-31 15:36:00,92.4,66.7,29.98,SSW,213,1.0,14.0,43,0.00,,,0.00,Wunderground v.1.15,2013-05-31 19:36:00,
2013-05-31 15:41:00,92.6,66.8,29.98,SW,218,5.0,11.0,43,0.00,,,0.00,Wunderground v.1.15,2013-05-31 19:41:00,
2013-05-31 15:46:00,92.3,66.6,29.98,SW,235,3.0,11.0,43,0.00,,,0.00,Wunderground v.1.15,2013-05-31 19:46:00,
2013-05-31 15:51:00,92.1,66.4,29.97,West,270,4.0,10.0,43,0.00,,,0.00,Wunderground v.1.15,2013-05-31 19:51:00,
2013-05-31 15:56:00,92.6,66.8,29.97,WSW,244,6.0,10.0,43,0.00,,,0.00,Wunderground v.1.15,2013-05-31 19:56:00,
2013-05-31 16:01:00,93.4,66.2,29.97,SW,232,1.0,9.0,41,0.00,,,0.00,Wunderground v.1.15,2013-05-31 20:01:00,
2013-05-31 16:06:00,93.9,67.3,29.97,SW,230,5.0,9.0,42,0.00,,,0.00,Wunderground v.1.15,2013-05-31 20:06:00,
2013-05-31 16:12:00,93.6,67.1,29.96,WSW,240,6.0,10.0,42,0.00,,,0.00,Wunderground v.1.15,2013-05-31 20:12:00,
2013-05-31 16:17:00,93.3,65.4,29.97,SW,219,6.0,15.0,40,0.00,,,0.00,Wunderground v.1.15,2013-05-31 20:17:00,
2013-05-31 16:22:00,92.9,66.4,29.97,SW,233,0.0,5.0,42,0.00,,,0.00,Wunderground v.1.15,2013-05-31 20:22:00,
2013-05-31 16:27:00,92.9,67.8,29.96,SW,218,9.0,9.0,44,0.00,,,0.00,Wunderground v.1.15,2013-05-31 20:27:00,
2013-05-31 16:32:00,93.0,67.2,29.96,West,262,3.0,11.0,43,0.00,,,0.00,Wunderground v.1.15,2013-05-31 20:32:00,
2013-05-31 16:37:00,93.2,67.4,29.96,West,271,1.0,11.0,43,0.00,,,0.00,Wunderground v.1.15,2013-05-31 20:37:00,
2013-05-31 16:42:00,93.5,66.3,29.96,WNW,295,9.0,10.0,41,0.00,,,0.00,Wunderground v.1.15,2013-05-31 20:42:00,
2013-05-31 16:47:00,93.7,67.1,29.96,SW,236,5.0,10.0,42,0.00,,,0.00,Wunderground v.1.15,2013-05-31 20:47:00,
2013-05-31 16:52:00,93.7,67.1,29.96,SW,225,0.0,13.0,42,0.00,,,0.00,Wunderground v.1.15,2013-05-31 20:52:00,
2013-05-31 16:57:00,93.7,67.1,29.95,West,275,3.0,13.0,42,0.00,,,0.00,Wunderground v.1.15,2013-05-31 20:57:00,
2013-05-31 17:02:00,93.3,66.1,29.95,SW,228,9.0,14.0,41,0.00,,,0.00,Wunderground v.1.15,2013-05-31 21:02:00,
2013-05-31 17:07:00,92.9,67.1,29.95,WSW,245,5.0,14.0,43,0.00,,,0.00,Wunderground v.1.15,2013-05-31 21:07:00,
2013-05-31 17:12:00,92.9,67.8,29.95,WNW,286,3.0,11.0,44,0.00,,,0.00,Wunderground v.1.15,2013-05-31 21:12:00,
2013-05-31 17:17:00,93.1,67.3,29.95,South,190,11.0,11.0,43,0.00,,,0.00,Wunderground v.1.15,2013-05-31 21:17:00,
2013-05-31 17:22:00,93.0,67.2,29.95,WSW,245,1.0,11.0,43,0.00,,,0.00,Wunderground v.1.15,2013-05-31 21:22:00,
2013-05-31 17:27:00,92.8,67.0,29.95,WSW,252,10.0,11.0,43,0.00,,,0.00,Wunderground v.1.15,2013-05-31 21:27:00,
2013-05-31 17:32:00,92.5,66.7,29.95,SW,233,2.0,13.0,43,0.00,,,0.00,Wunderground v.1.15,2013-05-31 21:32:00,
2013-05-31 17:37:00,92.4,66.7,29.94,SW,221,4.0,13.0,43,0.00,,,0.00,Wunderground v.1.15,2013-05-31 21:37:00,
2013-05-31 17:42:00,92.4,66.7,29.94,SW,232,0.0,7.0,43,0.00,,,0.00,Wunderground v.1.15,2013-05-31 21:42:00,
2013-05-31 17:47:00,92.0,66.3,29.94,SW,232,1.0,12.0,43,0.00,,,0.00,Wunderground v.1.15,2013-05-31 21:47:00,
2013-05-31 17:52:00,91.8,66.8,29.94,NW,307,0.0,6.0,44,0.00,,,0.00,Wunderground v.1.15,2013-05-31 21:52:00,
2013-05-31 17:57:00,91.7,67.3,29.94,WNW,296,1.0,6.0,45,0.00,,,0.00,Wunderground v.1.15,2013-05-31 21:57:00,
2013-05-31 18:02:00,91.5,67.2,29.94,SW,215,1.0,12.0,45,0.00,,,0.00,Wunderground v.1.15,2013-05-31 22:02:00,
2013-05-31 18:07:00,91.3,66.3,29.94,WSW,257,1.0,13.0,44,0.00,,,0.00,Wunderground v.1.15,2013-05-31 22:07:00,
2013-05-31 18:12:00,91.1,67.4,29.94,SW,234,2.0,9.0,46,0.00,,,0.00,Wunderground v.1.15,2013-05-31 22:12:00,
2013-05-31 18:17:00,91.0,67.3,29.93,SSW,197,0.0,9.0,46,0.00,,,0.00,Wunderground v.1.15,2013-05-31 22:17:00,
2013-05-31 18:22:00,90.9,66.6,29.93,WSW,258,4.0,6.0,45,0.00,,,0.00,Wunderground v.1.15,2013-05-31 22:22:00,
2013-05-31 18:27:00,90.7,66.4,29.93,SSW,210,0.0,7.0,45,0.00,,,0.00,Wunderground v.1.15,2013-05-31 22:27:00,
2013-05-31 18:32:00,90.5,66.9,29.93,SSW,211,4.0,6.0,46,0.00,,,0.00,Wunderground v.1.15,2013-05-31 22:32:00,
2013-05-31 18:37:00,90.3,66.7,29.93,South,184,0.0,11.0,46,0.00,,,0.00,Wunderground v.1.15,2013-05-31 22:37:00,
2013-05-31 18:43:00,90.1,66.5,29.93,SW,226,1.0,4.0,46,0.00,,,0.00,Wunderground v.1.15,2013-05-31 22:43:00,
2013-05-31 18:48:00,89.8,66.3,29.93,WSW,240,3.0,12.0,46,0.00,,,0.00,Wunderground v.1.15,2013-05-31 22:48:00,
2013-05-31 18:53:00,89.7,66.8,29.93,West,277,0.0,4.0,47,0.00,,,0.00,Wunderground v.1.15,2013-05-31 22:53:00,
2013-05-31 18:58:00,89.5,66.6,29.93,SW,222,3.0,5.0,47,0.00,,,0.00,Wunderground v.1.15,2013-05-31 22:58:00,
2013-05-31 19:03:00,89.3,66.4,29.93,SW,231,0.0,5.0,47,0.00,,,0.00,Wunderground v.1.15,2013-05-31 23:03:00,
2013-05-31 19:08:00,89.2,66.3,29.93,SW,230,1.0,5.0,47,0.00,,,0.00,Wunderground v.1.15,2013-05-31 23:08:00,
2013-05-31 19:13:00,88.8,66.6,29.93,SW,219,1.0,2.0,48,0.00,,,0.00,Wunderground v.1.15,2013-05-31 23:13:00,
2013-05-31 19:18:00,88.6,66.4,29.93,WSW,240,0.0,3.0,48,0.00,,,0.00,Wunderground v.1.15,2013-05-31 23:18:00,
2013-05-31 19:23:00,88.3,66.7,29.93,WSW,238,0.0,2.0,49,0.00,,,0.00,Wunderground v.1.15,2013-05-31 23:23:00,
2013-05-31 19:28:00,88.0,67.0,29.93,SW,225,0.0,2.0,50,0.00,,,0.00,Wunderground v.1.15,2013-05-31 23:28:00,
2013-05-31 19:33:00,87.7,67.3,29.93,SW,225,0.0,1.0,51,0.00,,,0.00,Wunderground v.1.15,2013-05-31 23:33:00,
2013-05-31 19:38:00,87.3,67.5,29.93,SW,225,0.0,1.0,52,0.00,,,0.00,Wunderground v.1.15,2013-05-31 23:38:00,
2013-05-31 19:43:00,86.9,68.3,29.93,SW,225,0.0,0.0,54,0.00,,,0.00,Wunderground v.1.15,2013-05-31 23:43:00,
2013-05-31 19:48:00,86.2,68.1,29.93,SW,225,0.0,0.0,55,0.00,,,0.00,Wunderground v.1.15,2013-05-31 23:48:00,
2013-05-31 19:53:00,85.4,67.9,29.93,SW,225,0.0,0.0,56,0.00,,,0.00,Wunderground v.1.15,2013-05-31 23:53:00,
2013-05-31 19:58:00,84.8,67.9,29.93,SW,225,0.0,0.0,57,0.00,,,0.00,Wunderground v.1.15,2013-05-31 23:58:00,
2013-05-31 20:03:00,84.1,67.7,29.94,SW,225,0.0,0.0,58,0.00,,,0.00,Wunderground v.1.15,2013-06-01 00:03:00,
2013-05-31 20:08:00,83.6,68.2,29.94,SW,225,0.0,1.0,60,0.00,,,0.00,Wunderground v.1.15,2013-06-01 00:08:00,
2013-05-31 20:13:00,82.9,68.1,29.94,SW,225,0.0,0.0,61,0.00,,,0.00,Wunderground v.1.15,2013-06-01 00:13:00,
2013-05-31 20:18:00,82.3,67.5,29.94,SW,225,0.0,0.0,61,0.00,,,0.00,Wunderground v.1.15,2013-06-01 00:18:00,
2013-05-31 20:23:00,81.7,67.4,29.94,SW,225,0.0,0.0,62,0.00,,,0.00,Wunderground v.1.15,2013-06-01 00:23:00,
2013-05-31 20:28:00,81.0,67.2,29.94,SW,225,0.0,1.0,63,0.00,,,0.00,Wunderground v.1.15,2013-06-01 00:28:00,
2013-05-31 20:33:00,80.5,67.2,29.94,SW,225,0.0,0.0,64,0.00,,,0.00,Wunderground v.1.15,2013-06-01 00:33:00,
2013-05-31 20:38:00,80.2,67.4,29.95,SW,225,0.0,2.0,65,0.00,,,0.00,Wunderground v.1.15,2013-06-01 00:38:00,
2013-05-31 20:43:00,80.0,66.3,29.95,WSW,246,1.0,4.0,63,0.00,,,0.00,Wunderground v.1.15,2013-06-01 00:43:00,
2013-05-31 20:48:00,80.2,66.0,29.95,SW,234,1.0,4.0,62,0.00,,,0.00,Wunderground v.1.15,2013-06-01 00:48:00,
2013-05-31 20:53:00,80.6,66.4,29.95,SW,229,1.0,2.0,62,0.00,,,0.00,Wunderground v.1.15,2013-06-01 00:53:00,
2013-05-31 20:58:00,80.9,66.2,29.96,SW,217,0.0,6.0,61,0.00,,,0.00,Wunderground v.1.15,2013-06-01 00:58:00,
2013-05-31 21:03:00,81.0,66.3,29.96,SW,218,0.0,3.0,61,0.00,,,0.00,Wunderground v.1.15,2013-06-01 01:03:00,
2013-05-31 21:08:00,80.8,66.1,29.96,WSW,238,0.0,4.0,61,0.00,,,0.00,Wunderground v.1.15,2013-06-01 01:08:00,
2013-05-31 21:13:00,80.7,66.0,29.96,SW,214,0.0,2.0,61,0.00,,,0.00,Wunderground v.1.15,2013-06-01 01:13:00,
2013-05-31 21:18:00,80.5,65.8,29.96,SW,214,0.0,2.0,61,0.00,,,0.00,Wunderground v.1.15,2013-06-01 01:18:00,
2013-05-31 21:23:00,80.3,66.1,29.97,West,263,0.0,3.0,62,0.00,,,0.00,Wunderground v.1.15,2013-06-01 01:23:00,
2013-05-31 21:28:00,80.3,66.1,29.97,West,267,1.0,5.0,62,0.00,,,0.00,Wunderground v.1.15,2013-06-01 01:28:00,
2013-05-31 21:33:00,80.3,66.1,29.97,SW,231,0.0,4.0,62,0.00,,,0.00,Wunderground v.1.15,2013-06-01 01:33:00,
2013-05-31 21:38:00,80.3,66.1,29.97,SW,230,0.0,4.0,62,0.00,,,0.00,Wunderground v.1.15,2013-06-01 01:38:00,
2013-05-31 21:43:00,80.3,66.1,29.97,SSW,196,0.0,5.0,62,0.00,,,0.00,Wunderground v.1.15,2013-06-01 01:43:00,
2013-05-31 21:48:00,80.1,66.4,29.97,SW,227,4.0,5.0,63,0.00,,,0.00,Wunderground v.1.15,2013-06-01 01:48:00,
2013-05-31 21:53:00,80.0,66.3,29.97,SW,227,1.0,5.0,63,0.00,,,0.00,Wunderground v.1.15,2013-06-01 01:53:00,
2013-05-31 21:59:00,80.0,66.7,29.97,SW,228,0.0,5.0,64,0.00,,,0.00,Wunderground v.1.15,2013-06-01 01:59:00,
2013-05-31 22:04:00,79.8,66.5,29.97,SW,232,0.0,1.0,64,0.00,,,0.00,Wunderground v.1.15,2013-06-01 02:04:00,
2013-05-31 22:09:00,79.4,66.6,29.97,SW,232,0.0,1.0,65,0.00,,,0.00,Wunderground v.1.15,2013-06-01 02:09:00,
2013-05-31 22:14:00,79.1,66.3,29.97,SW,226,0.0,4.0,65,0.00,,,0.00,Wunderground v.1.15,2013-06-01 02:14:00,
2013-05-31 22:19:00,78.8,66.5,29.97,SW,217,1.0,4.0,66,0.00,,,0.00,Wunderground v.1.15,2013-06-01 02:19:00,
2013-05-31 22:24:00,78.7,66.4,29.97,SW,217,0.0,1.0,66,0.00,,,0.00,Wunderground v.1.15,2013-06-01 02:24:00,
2013-05-31 22:29:00,78.7,66.8,29.98,SW,222,2.0,4.0,67,0.00,,,0.00,Wunderground v.1.15,2013-06-01 02:29:00,
2013-05-31 22:34:00,78.5,66.6,29.98,SW,227,0.0,2.0,67,0.00,,,0.00,Wunderground v.1.15,2013-06-01 02:34:00,
2013-05-31 22:39:00,78.4,66.5,29.98,SW,227,0.0,3.0,67,0.00,,,0.00,Wunderground v.1.15,2013-06-01 02:39:00,
2013-05-31 22:44:00,78.2,66.8,29.98,SW,225,0.0,3.0,68,0.00,,,0.00,Wunderground v.1.15,2013-06-01 02:44:00,
2013-05-31 22:49:00,78.1,67.1,29.98,SW,225,0.0,3.0,69,0.00,,,0.00,Wunderground v.1.15,2013-06-01 02:49:00,
2013-05-31 22:54:00,78.0,67.0,29.98,SW,225,0.0,2.0,69,0.00,,,0.00,Wunderground v.1.15,2013-06-01 02:54:00,
2013-05-31 22:59:00,77.9,67.3,29.98,SW,214,0.0,3.0,70,0.00,,,0.00,Wunderground v.1.15,2013-06-01 02:59:00,
2013-05-31 23:04:00,77.8,67.2,29.98,South,191,0.0,4.0,70,0.00,,,0.00,Wunderground v.1.15,2013-06-01 03:04:00,
2013-05-31 23:09:00,77.6,67.0,29.98,South,191,1.0,4.0,70,0.00,,,0.00,Wunderground v.1.15,2013-06-01 03:09:00,
2013-05-31 23:14:00,77.5,66.9,29.98,SSW,209,1.0,4.0,70,0.00,,,0.00,Wunderground v.1.15,2013-06-01 03:14:00,
2013-05-31 23:19:00,77.4,67.3,29.98,WSW,254,0.0,4.0,71,0.00,,,0.00,Wunderground v.1.15,2013-06-01 03:19:00,
2013-05-31 23:24:00,77.4,67.3,29.98,SW,236,0.0,4.0,71,0.00,,,0.00,Wunderground v.1.15,2013-06-01 03:24:00,
2013-05-31 23:29:00,77.2,67.1,29.98,SSW,208,3.0,4.0,71,0.00,,,0.00,Wunderground v.1.15,2013-06-01 03:29:00,
2013-05-31 23:34:00,77.1,67.4,29.98,SSW,207,0.0,5.0,72,0.00,,,0.00,Wunderground v.1.15,2013-06-01 03:34:00,
2013-05-31 23:39:00,76.9,67.2,29.98,South,172,0.0,5.0,72,0.00,,,0.00,Wunderground v.1.15,2013-06-01 03:39:00,
2013-05-31 23:44:00,76.8,67.1,29.97,South,190,0.0,5.0,72,0.00,,,0.00,Wunderground v.1.15,2013-06-01 03:44:00,
2013-05-31 23:49:00,76.6,66.9,29.98,South,190,0.0,5.0,72,0.00,,,0.00,Wunderground v.1.15,2013-06-01 03:49:00,
2013-05-31 23:54:00,76.5,67.2,29.98,SW,228,0.0,4.0,73,0.00,,,0.00,Wunderground v.1.15,2013-06-01 03:54:00,
2013-05-31 23:59:00,76.3,67.0,29.97,SW,223,0.0,4.0,73,0.00,,,0.00,Wunderground v.1.15,2013-06-01 03:59:00,